createdAt,value
2018-06-28T00:00:37.894Z,2.43
2018-06-28T00:03:15.023Z,2.47
2018-06-28T00:05:52.272Z,2.20
2018-06-28T00:08:29.512Z,2.50
2018-06-28T00:11:09.714Z,2.70
2018-06-28T00:13:46.650Z,2.33
2018-06-28T00:16:23.736Z,2.27
2018-06-28T00:19:01.226Z,2.00
2018-06-28T00:21:38.479Z,2.30
2018-06-28T00:24:15.403Z,2.57
2018-06-28T00:26:52.547Z,1.97
2018-06-28T00:29:29.347Z,2.47
2018-06-28T00:32:07.093Z,2.00
2018-06-28T00:34:43.719Z,2.33
2018-06-28T00:37:20.931Z,1.80
2018-06-28T00:39:57.900Z,2.87
2018-06-28T00:42:35.425Z,3.73
2018-06-28T00:45:13.071Z,2.00
2018-06-28T00:47:50.824Z,2.63
2018-06-28T00:50:27.036Z,2.53
2018-06-28T00:53:04.149Z,2.40
2018-06-28T00:55:42.069Z,2.53
2018-06-28T00:58:19.823Z,2.13
2018-06-28T01:00:56.434Z,2.40
2018-06-28T01:03:33.037Z,2.23
2018-06-28T01:06:10.661Z,2.10
2018-06-28T01:08:47.593Z,2.80
2018-06-28T01:11:24.851Z,2.63
2018-06-28T01:14:02.578Z,2.40
2018-06-28T01:16:40.067Z,2.80
2018-06-28T01:19:17.082Z,2.90
2018-06-28T01:21:54.532Z,2.10
2018-06-28T01:24:32.102Z,2.40
2018-06-28T01:27:12.304Z,2.97
2018-06-28T01:29:49.531Z,3.33
2018-06-28T01:32:26.616Z,2.70
2018-06-28T01:35:03.993Z,2.97
2018-06-28T01:37:40.951Z,3.13
2018-06-28T01:40:18.735Z,2.80
2018-06-28T01:43:06.596Z,2.27
2018-06-28T01:45:44.308Z,3.70
2018-06-28T01:48:21.317Z,2.80
2018-06-28T01:50:58.755Z,3.00
2018-06-28T01:53:35.603Z,2.90
2018-06-28T01:56:12.433Z,2.77
2018-06-28T01:58:49.336Z,2.03
2018-06-28T02:01:26.666Z,3.20
2018-06-28T02:04:04.396Z,2.67
2018-06-28T02:06:41.259Z,2.60
2018-06-28T02:09:18.498Z,2.90
2018-06-28T02:11:55.835Z,2.70
2018-06-28T02:14:33.267Z,2.90
2018-06-28T02:17:10.665Z,3.00
2018-06-28T02:19:48.034Z,2.60
2018-06-28T02:22:25.174Z,2.50
2018-06-28T02:25:02.175Z,3.17
2018-06-28T02:27:39.743Z,2.43
2018-06-28T02:30:16.728Z,3.37
2018-06-28T02:32:55.707Z,3.73
2018-06-28T02:35:32.927Z,3.83
2018-06-28T02:38:10.429Z,2.57
2018-06-28T02:40:47.155Z,2.73
2018-06-28T02:43:24.223Z,2.13
2018-06-28T02:46:01.430Z,3.00
2018-06-28T02:48:38.597Z,2.63
2018-06-28T02:51:15.711Z,3.60
2018-06-28T02:53:52.530Z,2.50
2018-06-28T02:56:29.898Z,3.07
2018-06-28T02:59:06.992Z,2.40
2018-06-28T03:01:43.773Z,3.00
2018-06-28T03:04:21.130Z,2.47
2018-06-28T03:06:58.468Z,2.03
2018-06-28T03:09:35.682Z,2.90
2018-06-28T03:12:13.329Z,2.83
2018-06-28T03:14:50.438Z,2.20
2018-06-28T03:17:28.030Z,2.03
2018-06-28T03:20:05.704Z,2.40
2018-06-28T03:22:43.394Z,2.20
2018-06-28T03:25:20.912Z,2.37
2018-06-28T03:27:58.290Z,2.00
2018-06-28T03:30:35.909Z,2.40
2018-06-28T03:33:13.127Z,1.90
2018-06-28T03:35:50.445Z,2.77
2018-06-28T03:38:27.819Z,2.13
2018-06-28T03:41:05.172Z,2.00
2018-06-28T03:43:42.920Z,2.33
2018-06-28T03:46:20.549Z,1.67
2018-06-28T03:48:57.605Z,2.00
2018-06-28T03:51:35.153Z,1.80
2018-06-28T03:54:11.915Z,2.10
2018-06-28T03:56:49.235Z,2.37
2018-06-28T03:59:26.139Z,3.03
2018-06-28T04:02:03.007Z,2.00
2018-06-28T04:04:40.392Z,2.03
2018-06-28T04:07:17.460Z,1.90
2018-06-28T04:09:54.716Z,2.73
2018-06-28T04:12:31.783Z,1.93
2018-06-28T04:15:08.688Z,2.07
2018-06-28T04:17:45.856Z,2.10
2018-06-28T04:20:23.651Z,2.40
2018-06-28T04:23:00.634Z,2.40
2018-06-28T04:25:37.696Z,3.40
2018-06-28T04:28:14.876Z,3.53
2018-06-28T04:30:52.091Z,1.97
2018-06-28T04:33:29.044Z,2.07
2018-06-28T04:36:05.115Z,2.70
2018-06-28T04:41:42.074Z,2.60
2018-06-28T04:44:19.031Z,2.53
2018-06-28T04:46:55.600Z,2.13
2018-06-28T04:49:32.781Z,2.23
2018-06-28T04:52:09.860Z,2.87
2018-06-28T04:55:06.122Z,2.67
2018-06-28T04:57:42.871Z,2.70
2018-06-28T05:00:20.169Z,3.10
2018-06-28T05:02:57.526Z,2.93
2018-06-28T05:05:34.405Z,2.80
2018-06-28T05:08:11.854Z,3.23
2018-06-28T05:10:49.972Z,3.83
2018-06-28T05:13:27.387Z,4.20
2018-06-28T05:16:04.598Z,3.17
2018-06-28T05:18:41.558Z,2.90
2018-06-28T05:21:19.071Z,3.67
2018-06-28T05:23:56.569Z,2.67
2018-06-28T05:26:33.176Z,3.30
2018-06-28T05:29:10.694Z,3.40
2018-06-28T05:31:48.127Z,3.13
2018-06-28T05:34:25.234Z,2.50
2018-06-28T05:37:02.576Z,3.40
2018-06-28T05:39:39.996Z,3.20
2018-06-28T05:42:16.445Z,2.73
2018-06-28T05:44:53.721Z,4.17
2018-06-28T05:47:31.028Z,3.27
2018-06-28T05:50:08.279Z,2.77
2018-06-28T05:52:44.773Z,2.57
2018-06-28T05:55:21.377Z,3.90
2018-06-28T05:57:58.587Z,4.50
2018-06-28T06:00:35.862Z,3.90
2018-06-28T06:03:13.116Z,3.70
2018-06-28T06:05:50.542Z,3.13
2018-06-28T06:08:27.116Z,2.10
2018-06-28T06:11:04.248Z,2.10
2018-06-28T06:13:41.212Z,2.10
2018-06-28T06:16:18.618Z,2.17
2018-06-28T06:18:55.410Z,2.23
2018-06-28T06:21:33.167Z,2.67
2018-06-28T06:24:10.049Z,2.53
2018-06-28T06:26:46.943Z,2.30
2018-06-28T06:29:24.216Z,2.20
2018-06-28T06:32:01.344Z,2.70
2018-06-28T06:34:38.512Z,2.63
2018-06-28T06:37:15.391Z,2.13
2018-06-28T06:39:53.352Z,5.23
2018-06-28T06:42:31.037Z,3.17
2018-06-28T06:45:08.461Z,3.97
2018-06-28T06:47:45.756Z,2.70
2018-06-28T06:50:23.345Z,2.67
2018-06-28T06:53:00.049Z,3.37
2018-06-28T06:55:37.287Z,2.70
2018-06-28T06:58:14.629Z,2.60
2018-06-28T07:00:52.059Z,2.63
2018-06-28T07:03:29.108Z,2.50
2018-06-28T07:06:06.031Z,3.57
2018-06-28T07:08:44.249Z,3.77
2018-06-28T07:11:22.010Z,3.60
2018-06-28T07:13:58.715Z,2.60
2018-06-28T07:16:35.729Z,2.87
2018-06-28T07:19:12.473Z,2.70
2018-06-28T07:21:49.312Z,2.90
2018-06-28T07:24:27.067Z,3.30
2018-06-28T07:27:04.160Z,2.43
2018-06-28T07:29:42.992Z,2.40
2018-06-28T07:32:20.603Z,3.10
2018-06-28T07:34:57.783Z,1.97
2018-06-28T07:37:34.570Z,3.23
2018-06-28T07:40:12.228Z,2.07
2018-06-28T07:42:49.645Z,2.63
2018-06-28T07:45:27.438Z,2.80
2018-06-28T07:48:04.297Z,3.73
2018-06-28T07:50:46.403Z,2.53
2018-06-28T07:53:23.516Z,3.20
2018-06-28T07:56:00.413Z,2.77
2018-06-28T07:58:36.700Z,3.13
2018-06-28T08:01:14.054Z,2.70
2018-06-28T08:03:51.020Z,3.00
2018-06-28T08:06:28.831Z,2.50
2018-06-28T08:09:07.615Z,3.27
2018-06-28T08:11:45.332Z,2.10
2018-06-28T08:14:22.145Z,2.03
2018-06-28T08:16:59.422Z,2.20
2018-06-28T08:19:37.017Z,2.87
2018-06-28T08:22:14.175Z,2.07
2018-06-28T08:24:51.590Z,2.93
2018-06-28T08:27:28.641Z,2.30
2018-06-28T08:30:05.770Z,2.03
2018-06-28T08:32:42.502Z,2.90
2018-06-28T08:35:19.102Z,1.50
2018-06-28T08:37:55.406Z,1.70
2018-06-28T08:40:33.805Z,1.90
2018-06-28T08:43:12.135Z,2.20
2018-06-28T08:45:49.671Z,1.90
2018-06-28T08:48:26.633Z,2.50
2018-06-28T08:51:03.800Z,1.60
2018-06-28T08:53:40.827Z,1.40
2018-06-28T08:56:17.890Z,1.50
2018-06-28T08:58:55.499Z,2.13
2018-06-28T09:01:32.202Z,2.23
2018-06-28T09:04:09.435Z,1.80
2018-06-28T09:06:46.530Z,1.50
2018-06-28T09:09:24.769Z,1.60
2018-06-28T09:12:03.245Z,1.77
2018-06-28T09:14:40.730Z,1.23
2018-06-28T09:17:17.797Z,1.37
2018-06-28T09:19:55.921Z,1.90
2018-06-28T09:22:32.700Z,1.53
2018-06-28T09:25:10.004Z,1.87
2018-06-28T09:27:47.375Z,2.17
2018-06-28T09:30:24.350Z,1.17
2018-06-28T09:33:01.571Z,2.10
2018-06-28T09:35:38.722Z,1.43
2018-06-28T09:38:15.849Z,1.87
2018-06-28T09:40:54.035Z,1.67
2018-06-28T09:43:31.029Z,2.30
2018-06-28T09:46:08.230Z,1.80
2018-06-28T09:48:45.405Z,1.40
2018-06-28T09:51:22.440Z,1.40
2018-06-28T09:54:00.492Z,1.43
2018-06-28T09:56:38.637Z,1.50
2018-06-28T09:59:15.228Z,1.70
2018-06-28T10:01:52.410Z,1.20
2018-06-28T10:04:30.106Z,1.57
2018-06-28T10:10:05.208Z,1.53
2018-06-28T10:12:42.196Z,1.57
2018-06-28T10:15:19.831Z,1.40
2018-06-28T10:17:57.281Z,1.90
2018-06-28T10:20:34.592Z,1.97
2018-06-28T10:23:11.835Z,1.97
2018-06-28T10:25:49.002Z,2.27
2018-06-28T10:28:26.634Z,2.00
2018-06-28T10:31:03.788Z,1.90
2018-06-28T10:33:40.677Z,1.60
2018-06-28T10:36:17.412Z,1.93
2018-06-28T10:38:54.627Z,1.40
2018-06-28T10:41:32.440Z,1.83
2018-06-28T10:44:09.224Z,1.87
2018-06-28T10:46:46.109Z,1.90
2018-06-28T10:49:23.370Z,2.08
2018-06-28T10:52:01.618Z,1.32
2018-06-28T10:54:38.795Z,1.67
2018-06-28T10:57:15.702Z,1.30
2018-06-28T10:59:53.042Z,1.90
2018-06-28T11:02:30.679Z,1.67
2018-06-28T11:05:07.823Z,1.70
2018-06-28T11:07:44.822Z,1.53
2018-06-28T11:10:22.111Z,1.53
2018-06-28T11:12:58.813Z,2.03
2018-06-28T11:15:35.731Z,2.10
2018-06-28T11:18:12.802Z,1.67
2018-06-28T11:20:49.633Z,2.20
2018-06-28T11:23:26.987Z,1.60
2018-06-28T11:26:03.880Z,1.80
2018-06-28T11:28:41.544Z,1.60
2018-06-28T11:31:18.628Z,2.00
2018-06-28T11:33:56.344Z,1.87
2018-06-28T11:36:33.919Z,1.57
2018-06-28T11:39:11.857Z,2.17
2018-06-28T11:41:49.740Z,1.40
2018-06-28T11:44:26.551Z,2.07
2018-06-28T11:47:10.065Z,1.50
2018-06-28T11:49:47.220Z,1.63
2018-06-28T11:52:24.871Z,1.80
2018-06-28T11:55:01.922Z,1.40
2018-06-28T11:57:38.562Z,1.60
2018-06-28T12:00:15.829Z,1.40
2018-06-28T12:02:52.977Z,1.40
2018-06-28T12:05:30.339Z,1.70
2018-06-28T12:08:08.891Z,2.35
2018-06-28T12:10:46.033Z,1.87
2018-06-28T12:13:22.787Z,2.03
2018-06-28T12:16:00.308Z,1.43
2018-06-28T12:18:36.949Z,1.73
2018-06-28T12:21:15.174Z,1.47
2018-06-28T12:23:51.810Z,1.60
2018-06-28T12:26:28.600Z,1.93
2018-06-28T12:29:05.426Z,2.03
2018-06-28T12:31:42.622Z,1.77
2018-06-28T12:34:19.845Z,1.67
2018-06-28T12:36:56.636Z,1.70
2018-06-28T12:39:34.220Z,1.90
2018-06-28T12:42:11.619Z,1.57
2018-06-28T12:44:49.321Z,3.20
2018-06-28T12:47:46.813Z,2.20
2018-06-28T12:50:23.777Z,2.50
2018-06-28T12:53:02.895Z,1.80
2018-06-28T12:56:19.010Z,2.03
2018-06-28T12:58:57.846Z,2.07
2018-06-28T13:01:35.401Z,1.83
2018-06-28T13:04:12.446Z,1.70
2018-06-28T13:06:49.724Z,2.47
2018-06-28T13:09:27.182Z,1.67
2018-06-28T13:12:04.779Z,1.53
2018-06-28T13:14:41.520Z,1.97
2018-06-28T13:17:18.436Z,1.57
2018-06-28T13:19:55.480Z,1.47
2018-06-28T13:22:32.616Z,2.07
2018-06-28T13:25:09.222Z,1.33
2018-06-28T13:27:46.629Z,1.30
2018-06-28T13:30:23.808Z,1.67
2018-06-28T13:33:00.749Z,2.57
2018-06-28T13:35:38.446Z,1.70
2018-06-28T13:38:16.064Z,1.80
2018-06-28T13:40:53.469Z,2.00
2018-06-28T13:43:30.488Z,1.80
2018-06-28T13:46:07.690Z,2.30
2018-06-28T13:48:44.763Z,1.70
2018-06-28T13:51:21.948Z,1.50
2018-06-28T13:53:59.411Z,2.07
2018-06-28T13:56:36.672Z,1.60
2018-06-28T13:59:13.756Z,1.33
2018-06-28T14:01:51.401Z,1.67
2018-06-28T14:04:27.857Z,2.13
2018-06-28T14:07:05.375Z,1.80
2018-06-28T14:09:42.358Z,1.50
2018-06-28T14:12:19.484Z,1.83
2018-06-28T14:14:56.810Z,2.00
2018-06-28T14:17:34.576Z,1.40
2018-06-28T14:20:11.345Z,1.30
2018-06-28T14:22:48.996Z,1.40
2018-06-28T14:25:42.792Z,2.00
2018-06-28T14:28:19.789Z,1.70
2018-06-28T14:30:56.716Z,1.57
2018-06-28T14:33:34.289Z,1.50
2018-06-28T14:36:11.377Z,1.97
2018-06-28T14:38:48.223Z,2.70
2018-06-28T14:41:25.243Z,1.90
2018-06-28T14:44:02.246Z,1.57
2018-06-28T14:46:39.293Z,1.83
2018-06-28T14:49:16.460Z,2.10
2018-06-28T14:51:53.261Z,2.00
2018-06-28T14:54:30.323Z,1.60
2018-06-28T14:57:07.319Z,1.85
2018-06-28T14:59:44.708Z,1.97
2018-06-28T15:02:22.404Z,2.20
2018-06-28T15:04:59.424Z,2.57
2018-06-28T15:07:36.771Z,1.70
2018-06-28T15:10:13.610Z,1.70
2018-06-28T15:12:51.174Z,2.20
2018-06-28T15:15:28.230Z,1.90
2018-06-28T15:18:05.418Z,1.53
2018-06-28T15:20:42.607Z,1.70
2018-06-28T15:23:19.844Z,1.53
2018-06-28T15:25:56.707Z,1.67
2018-06-28T15:28:33.973Z,2.10
2018-06-28T15:31:11.332Z,1.57
2018-06-28T15:33:54.782Z,1.60
2018-06-28T15:36:31.772Z,2.27
2018-06-28T15:39:10.383Z,1.60
2018-06-28T15:41:47.804Z,2.03
2018-06-28T15:44:25.027Z,1.80
2018-06-28T15:47:02.269Z,2.00
2018-06-28T15:49:39.284Z,2.00
2018-06-28T15:52:16.360Z,1.87
2018-06-28T15:54:54.529Z,1.60
2018-06-28T15:57:31.866Z,1.63
2018-06-28T16:00:08.579Z,1.67
2018-06-28T16:02:46.048Z,2.27
2018-06-28T16:05:22.993Z,2.73
2018-06-28T16:08:00.103Z,3.13
2018-06-28T16:10:37.396Z,2.47
2018-06-28T16:13:14.458Z,2.17
2018-06-28T16:15:51.672Z,2.20
2018-06-28T16:18:29.112Z,2.63
2018-06-28T16:21:06.066Z,2.23
2018-06-28T16:23:43.717Z,2.70
2018-06-28T16:26:20.892Z,2.60
2018-06-28T16:28:58.404Z,2.07
2018-06-28T16:31:35.641Z,4.80
2018-06-28T16:34:12.584Z,2.67
2018-06-28T16:36:49.215Z,3.10
2018-06-28T16:39:26.689Z,2.93
2018-06-28T16:42:03.730Z,2.10
2018-06-28T16:44:40.831Z,3.80
2018-06-28T16:47:17.829Z,3.00
2018-06-28T16:49:55.797Z,8.70
2018-06-28T16:52:32.892Z,3.90
2018-06-28T16:55:10.228Z,2.90
2018-06-28T16:57:47.368Z,2.77
2018-06-28T17:00:24.490Z,2.73
2018-06-28T17:03:01.836Z,3.03
2018-06-28T17:05:39.409Z,1.70
2018-06-28T17:08:16.405Z,2.30
2018-06-28T17:10:53.709Z,1.73
2018-06-28T17:13:31.555Z,4.07
2018-06-28T17:16:08.889Z,2.60
2018-06-28T17:18:45.755Z,3.90
2018-06-28T17:21:23.007Z,3.07
2018-06-28T17:24:00.103Z,3.20
2018-06-28T17:26:38.162Z,3.03
2018-06-28T17:29:15.157Z,4.80
2018-06-28T17:31:52.841Z,4.33
2018-06-28T17:34:30.552Z,2.90
2018-06-28T17:37:07.373Z,3.07
2018-06-28T17:39:44.748Z,2.77
2018-06-28T17:42:21.900Z,3.30
2018-06-28T17:44:59.122Z,3.33
2018-06-28T17:47:36.263Z,3.20
2018-06-28T17:50:14.132Z,3.00
2018-06-28T17:52:51.386Z,3.20
2018-06-28T17:55:28.567Z,3.23
2018-06-28T17:58:05.478Z,3.53
2018-06-28T18:00:43.192Z,3.80
2018-06-28T18:03:20.190Z,3.57
2018-06-28T18:05:57.145Z,2.60
2018-06-28T18:08:33.913Z,3.20
2018-06-28T18:11:11.399Z,3.23
2018-06-28T18:13:48.526Z,3.50
2018-06-28T18:16:25.886Z,2.60
2018-06-28T18:19:02.796Z,2.50
2018-06-28T18:21:39.844Z,3.40
2018-06-28T18:24:16.750Z,2.90
2018-06-28T18:26:54.425Z,2.20
2018-06-28T18:29:31.264Z,2.30
2018-06-28T18:32:09.044Z,2.70
2018-06-28T18:34:45.975Z,3.53
2018-06-28T18:37:22.973Z,2.90
2018-06-28T18:40:00.159Z,2.90
2018-06-28T18:42:37.657Z,2.60
2018-06-28T18:45:14.375Z,2.60
2018-06-28T18:47:51.820Z,3.20
2018-06-28T18:50:28.819Z,2.50
2018-06-28T18:53:05.757Z,2.50
2018-06-28T18:55:43.206Z,3.10
2018-06-28T18:58:20.108Z,2.40
2018-06-28T19:00:57.850Z,2.30
2018-06-28T19:03:35.018Z,3.50
2018-06-28T19:06:12.045Z,4.80
2018-06-28T19:08:49.422Z,3.67
2018-06-28T19:11:26.225Z,3.67
2018-06-28T19:14:08.462Z,4.63
2018-06-28T19:16:50.621Z,3.33
2018-06-28T19:19:27.806Z,4.17
2018-06-28T19:22:09.624Z,2.93
2018-06-28T19:24:46.730Z,3.30
2018-06-28T19:27:23.633Z,4.73
2018-06-28T19:30:05.895Z,3.97
2018-06-28T19:32:43.119Z,3.40
2018-06-28T19:35:20.195Z,3.67
2018-06-28T19:37:57.586Z,3.60
2018-06-28T19:40:39.778Z,3.60
2018-06-28T19:43:16.611Z,2.40
2018-06-28T19:45:54.088Z,3.27
2018-06-28T19:48:31.399Z,3.10
2018-06-28T19:51:14.315Z,2.97
2018-06-28T19:53:50.906Z,2.80
2018-06-28T19:56:28.362Z,2.00
2018-06-28T19:59:04.801Z,2.50
2018-06-28T20:01:46.423Z,2.40
2018-06-28T20:04:28.767Z,2.43
2018-06-28T20:07:06.035Z,2.17
2018-06-28T20:09:43.945Z,2.53
2018-06-28T20:12:25.519Z,2.40
2018-06-28T20:15:07.489Z,2.10
2018-06-28T20:18:03.789Z,3.17
2018-06-28T20:20:40.779Z,3.67
2018-06-28T20:23:17.751Z,3.00
2018-06-28T20:25:54.798Z,3.20
2018-06-28T20:28:37.049Z,2.83
2018-06-28T20:38:12.345Z,7.63
2018-06-28T20:40:49.277Z,10.97
2018-06-28T20:43:26.885Z,3.93
2018-06-28T20:46:04.154Z,3.77
2018-06-28T20:48:40.810Z,3.37
2018-06-28T20:51:18.171Z,3.83
2018-06-28T20:53:55.311Z,2.20
2018-06-28T20:56:32.409Z,2.50
2018-06-28T20:59:09.496Z,2.93
2018-06-28T21:01:46.870Z,2.77
2018-06-28T21:04:24.523Z,2.60
2018-06-28T21:07:02.471Z,2.50
2018-06-28T21:09:38.891Z,2.70
2018-06-28T21:12:16.192Z,3.63
2018-06-28T21:14:53.309Z,3.30
2018-06-28T21:17:30.934Z,3.10
2018-06-28T21:20:09.472Z,2.67
2018-06-28T21:22:46.794Z,8.97
2018-06-28T21:25:24.727Z,3.83
2018-06-28T21:28:01.625Z,3.10
2018-06-28T21:30:39.021Z,2.43
2018-06-28T21:33:16.894Z,3.10
2018-06-28T21:35:54.128Z,3.37
2018-06-28T21:38:31.411Z,3.40
2018-06-28T21:41:08.855Z,5.00
2018-06-28T21:43:46.507Z,3.33
2018-06-28T21:46:23.495Z,3.23
2018-06-28T21:49:00.815Z,3.03
2018-06-28T21:51:38.235Z,2.80
2018-06-28T21:54:15.079Z,3.30
2018-06-28T21:56:52.466Z,2.70
2018-06-28T21:59:29.390Z,3.50
2018-06-28T22:02:06.597Z,3.73
2018-06-28T22:04:43.812Z,4.60
2018-06-28T22:07:20.656Z,3.77
2018-06-28T22:09:57.871Z,4.00
2018-06-28T22:12:34.919Z,4.77
2018-06-28T22:15:16.878Z,3.70
2018-06-28T22:17:56.067Z,3.67
2018-06-28T22:20:33.896Z,3.40
2018-06-28T22:23:10.428Z,3.30
2018-06-28T22:25:47.351Z,5.50
2018-06-28T22:28:24.258Z,3.17
2018-06-28T22:31:00.662Z,3.13
2018-06-28T22:33:37.290Z,2.97
2018-06-28T22:36:14.547Z,2.60
2018-06-28T22:38:55.489Z,3.40
2018-06-28T22:41:31.848Z,3.70
2018-06-28T22:44:09.953Z,3.63
2018-06-28T22:46:47.730Z,3.57
2018-06-28T22:49:24.704Z,3.77
2018-06-28T22:52:01.440Z,4.10
2018-06-28T22:54:39.670Z,3.30
2018-06-28T22:57:16.740Z,3.97
2018-06-28T22:59:53.856Z,3.47
2018-06-28T23:02:31.718Z,5.17
2018-06-28T23:05:09.061Z,4.60
2018-06-28T23:07:45.912Z,4.83
2018-06-28T23:10:23.011Z,5.03
2018-06-28T23:13:00.219Z,4.90
2018-06-28T23:15:37.398Z,5.00
2018-06-28T23:18:14.737Z,4.53
2018-06-28T23:20:51.801Z,4.90
2018-06-28T23:23:29.081Z,4.70
2018-06-28T23:26:06.478Z,5.70
2018-06-28T23:28:43.700Z,4.43
2018-06-28T23:31:21.108Z,4.20
2018-06-28T23:33:58.933Z,7.10
2018-06-28T23:36:36.570Z,4.10
2018-06-28T23:39:13.624Z,4.73
2018-06-28T23:41:52.384Z,4.97
2018-06-28T23:44:30.482Z,4.50
2018-06-28T23:47:08.095Z,4.20
2018-06-28T23:49:45.306Z,4.00
2018-06-28T23:52:22.702Z,4.97
2018-06-28T23:54:59.199Z,4.30
2018-06-28T23:57:36.915Z,6.10
